sensor_id;sensor_type;location;lat;lon;timestamp;pressure;altitude;pressure_sealevel;temperature
19568;BMP280;9930;49.240;8.548;2022-08-25T00:02:02;100520.53;;;27.68
19568;BMP280;9930;49.240;8.548;2022-08-25T00:04:31;100523.34;;;27.62
19568;BMP280;9930;49.240;8.548;2022-08-25T00:06:57;100530.38;;;27.60
19568;BMP280;9930;49.240;8.548;2022-08-25T00:09:26;100520.09;;;27.52
19568;BMP280;9930;49.240;8.548;2022-08-25T00:11:53;100521.06;;;27.50
19568;BMP280;9930;49.240;8.548;2022-08-25T00:14:26;100519.34;;;27.49
19568;BMP280;9930;49.240;8.548;2022-08-25T00:16:52;100517.63;;;27.48
19568;BMP280;9930;49.240;8.548;2022-08-25T00:19:28;100521.25;;;27.43
19568;BMP280;9930;49.240;8.548;2022-08-25T00:21:56;100521.25;;;27.43
19568;BMP280;9930;49.240;8.548;2022-08-25T00:24:23;100530.81;;;27.45
19568;BMP280;9930;49.240;8.548;2022-08-25T00:26:53;100527.38;;;27.42
19568;BMP280;9930;49.240;8.548;2022-08-25T00:29:21;100524.00;;;27.39
19568;BMP280;9930;49.240;8.548;2022-08-25T00:31:50;100525.81;;;27.37
19568;BMP280;9930;49.240;8.548;2022-08-25T00:34:25;100518.19;;;27.29
19568;BMP280;9930;49.240;8.548;2022-08-25T00:36:51;100526.84;;;27.31
19568;BMP280;9930;49.240;8.548;2022-08-25T00:39:20;100530.38;;;27.30
19568;BMP280;9930;49.240;8.548;2022-08-25T00:41:50;100525.41;;;27.21
19568;BMP280;9930;49.240;8.548;2022-08-25T00:44:19;100523.72;;;27.19
19568;BMP280;9930;49.240;8.548;2022-08-25T00:46:51;100528.09;;;27.18
19568;BMP280;9930;49.240;8.548;2022-08-25T00:49:32;100520.44;;;27.12
19568;BMP280;9930;49.240;8.548;2022-08-25T00:52:08;100529.09;;;27.14
19568;BMP280;9930;49.240;8.548;2022-08-25T00:57:23;100528.25;;;27.14
19568;BMP280;9930;49.240;8.548;2022-08-25T00:59:52;100516.22;;;27.06
19568;BMP280;9930;49.240;8.548;2022-08-25T01:02:19;100525.66;;;27.12
19568;BMP280;9930;49.240;8.548;2022-08-25T01:04:49;100530.00;;;27.13
19568;BMP280;9930;49.240;8.548;2022-08-25T01:07:19;100533.53;;;27.12
19568;BMP280;9930;49.240;8.548;2022-08-25T01:09:53;100519.53;;;27.13
19568;BMP280;9930;49.240;8.548;2022-08-25T01:12:21;100505.75;;;27.06
19568;BMP280;9930;49.240;8.548;2022-08-25T01:14:48;100526.56;;;27.11
19568;BMP280;9930;49.240;8.548;2022-08-25T01:17:20;100506.69;;;27.04
19568;BMP280;9930;49.240;8.548;2022-08-25T01:19:49;100513.56;;;27.08
19568;BMP280;9930;49.240;8.548;2022-08-25T01:22:17;100510.09;;;27.07
19568;BMP280;9930;49.240;8.548;2022-08-25T01:24:58;100511.16;;;27.00
19568;BMP280;9930;49.240;8.548;2022-08-25T01:27:26;100510.22;;;27.03
19568;BMP280;9930;49.240;8.548;2022-08-25T01:29:55;100521.59;;;27.02
19568;BMP280;9930;49.240;8.548;2022-08-25T01:32:24;100526.03;;;27.00
19568;BMP280;9930;49.240;8.548;2022-08-25T01:34:55;100522.59;;;26.98
19568;BMP280;9930;49.240;8.548;2022-08-25T01:37:21;100520.03;;;26.95
19568;BMP280;9930;49.240;8.548;2022-08-25T01:39:49;100517.56;;;26.89
19568;BMP280;9930;49.240;8.548;2022-08-25T01:43:12;100528.94;;;26.88
19568;BMP280;9930;49.240;8.548;2022-08-25T01:45:17;100528.28;;;26.79
19568;BMP280;9930;49.240;8.548;2022-08-25T01:47:47;100524.13;;;26.72
19568;BMP280;9930;49.240;8.548;2022-08-25T01:50:20;100525.84;;;26.73
19568;BMP280;9930;49.240;8.548;2022-08-25T01:53:22;100530.34;;;26.68
19568;BMP280;9930;49.240;8.548;2022-08-25T01:55:50;100527.78;;;26.67
19568;BMP280;9930;49.240;8.548;2022-08-25T01:58:41;100532.22;;;26.63
19568;BMP280;9930;49.240;8.548;2022-08-25T02:01:12;100534.06;;;26.60
19568;BMP280;9930;49.240;8.548;2022-08-25T02:03:53;100533.31;;;26.55
19568;BMP280;9930;49.240;8.548;2022-08-25T02:06:31;100543.78;;;26.55
19568;BMP280;9930;49.240;8.548;2022-08-25T02:09:08;100530.00;;;26.48
19568;BMP280;9930;49.240;8.548;2022-08-25T02:11:39;100536.88;;;26.52
19568;BMP280;9930;49.240;8.548;2022-08-25T02:14:10;100529.94;;;26.51
19568;BMP280;9930;49.240;8.548;2022-08-25T02:16:39;100527.41;;;26.48
19568;BMP280;9930;49.240;8.548;2022-08-25T02:19:10;100508.34;;;26.43
19568;BMP280;9930;49.240;8.548;2022-08-25T02:21:42;100524.81;;;26.46
19568;BMP280;9930;49.240;8.548;2022-08-25T02:24:11;100513.66;;;26.40
19568;BMP280;9930;49.240;8.548;2022-08-25T02:26:37;100523.16;;;26.44
19568;BMP280;9930;49.240;8.548;2022-08-25T02:29:05;100524.94;;;26.42
19568;BMP280;9930;49.240;8.548;2022-08-25T02:31:32;100517.22;;;26.37
19568;BMP280;9930;49.240;8.548;2022-08-25T02:33:58;100515.63;;;26.32
19568;BMP280;9930;49.240;8.548;2022-08-25T02:36:26;100518.94;;;26.38
19568;BMP280;9930;49.240;8.548;2022-08-25T02:38:52;100508.59;;;26.34
19568;BMP280;9930;49.240;8.548;2022-08-25T02:41:25;100498.19;;;26.31
19568;BMP280;9930;49.240;8.548;2022-08-25T02:43:51;100504.31;;;26.30
19568;BMP280;9930;49.240;8.548;2022-08-25T02:46:19;100513.81;;;26.34
19568;BMP280;9930;49.240;8.548;2022-08-25T02:48:52;100500.03;;;26.26
19568;BMP280;9930;49.240;8.548;2022-08-25T02:51:20;100520.84;;;26.30
19568;BMP280;9930;49.240;8.548;2022-08-25T02:53:51;100508.78;;;26.25
19568;BMP280;9930;49.240;8.548;2022-08-25T02:56:19;100503.56;;;26.25
19568;BMP280;9930;49.240;8.548;2022-08-25T02:58:50;100510.50;;;26.26
19568;BMP280;9930;49.240;8.548;2022-08-25T03:01:19;100506.22;;;26.23
19568;BMP280;9930;49.240;8.548;2022-08-25T03:03:47;100504.53;;;26.21
19568;BMP280;9930;49.240;8.548;2022-08-25T03:06:24;100502.91;;;26.17
19568;BMP280;9930;49.240;8.548;2022-08-25T03:08:53;100494.34;;;26.10
19568;BMP280;9930;49.240;8.548;2022-08-25T03:11:20;100505.63;;;26.12
19568;BMP280;9930;49.240;8.548;2022-08-25T03:13:48;100503.91;;;26.11
19568;BMP280;9930;49.240;8.548;2022-08-25T03:16:18;100503.16;;;26.06
19568;BMP280;9930;49.240;8.548;2022-08-25T03:18:48;100510.19;;;26.04
19568;BMP280;9930;49.240;8.548;2022-08-25T03:21:18;100505.03;;;26.01
19568;BMP280;9930;49.240;8.548;2022-08-25T03:23:49;100497.41;;;25.93
19568;BMP280;9930;49.240;8.548;2022-08-25T03:26:21;100492.28;;;25.89
19568;BMP280;9930;49.240;8.548;2022-08-25T03:29:07;100510.53;;;25.90
19568;BMP280;9930;49.240;8.548;2022-08-25T03:31:36;100501.88;;;25.88
19568;BMP280;9930;49.240;8.548;2022-08-25T03:34:06;100504.56;;;25.85
19568;BMP280;9930;49.240;8.548;2022-08-25T03:36:32;100502.00;;;25.84
19568;BMP280;9930;49.240;8.548;2022-08-25T03:38:58;100506.41;;;25.81
19568;BMP280;9930;49.240;8.548;2022-08-25T03:41:28;100505.53;;;25.81
19568;BMP280;9930;49.240;8.548;2022-08-25T03:43:55;100498.59;;;25.80
19568;BMP280;9930;49.240;8.548;2022-08-25T03:46:35;100496.91;;;25.77
19568;BMP280;9930;49.240;8.548;2022-08-25T03:49:05;100477.09;;;25.69
19568;BMP280;9930;49.240;8.548;2022-08-25T03:51:49;100475.25;;;25.72
19568;BMP280;9930;49.240;8.548;2022-08-25T03:54:22;100471.00;;;25.68
19568;BMP280;9930;49.240;8.548;2022-08-25T03:56:48;100472.78;;;25.66
19568;BMP280;9930;49.240;8.548;2022-08-25T03:59:18;100470.22;;;25.65
19568;BMP280;9930;49.240;8.548;2022-08-25T04:01:49;100466.00;;;25.58
19568;BMP280;9930;49.240;8.548;2022-08-25T04:04:18;100478.97;;;25.61
19568;BMP280;9930;49.240;8.548;2022-08-25T04:06:48;100478.16;;;25.59
19568;BMP280;9930;49.240;8.548;2022-08-25T04:09:18;100480.00;;;25.54
19568;BMP280;9930;49.240;8.548;2022-08-25T04:11:48;100476.69;;;25.47
19568;BMP280;9930;49.240;8.548;2022-08-25T04:14:17;100483.56;;;25.51
19568;BMP280;9930;49.240;8.548;2022-08-25T04:16:47;100487.91;;;25.50
19568;BMP280;9930;49.240;8.548;2022-08-25T04:19:19;100485.34;;;25.49
19568;BMP280;9930;49.240;8.548;2022-08-25T04:21:47;100490.59;;;25.47
19568;BMP280;9930;49.240;8.548;2022-08-25T04:24:17;100481.16;;;25.42
19568;BMP280;9930;49.240;8.548;2022-08-25T04:26:49;100490.66;;;25.44
19568;BMP280;9930;49.240;8.548;2022-08-25T04:29:24;100500.22;;;25.45
19568;BMP280;9930;49.240;8.548;2022-08-25T04:31:54;100490.81;;;25.38
19568;BMP280;9930;49.240;8.548;2022-08-25T04:34:24;100502.00;;;25.43
19568;BMP280;9930;49.240;8.548;2022-08-25T04:36:57;100500.28;;;25.42
19568;BMP280;9930;49.240;8.548;2022-08-25T04:39:23;100497.81;;;25.36
19568;BMP280;9930;49.240;8.548;2022-08-25T04:41:50;100508.16;;;25.41
19568;BMP280;9930;49.240;8.548;2022-08-25T04:44:18;100506.41;;;25.41
19568;BMP280;9930;49.240;8.548;2022-08-25T04:46:48;100506.47;;;25.38
19568;BMP280;9930;49.240;8.548;2022-08-25T04:49:18;100499.59;;;25.34
19568;BMP280;9930;49.240;8.548;2022-08-25T04:51:48;100497.88;;;25.33
19568;BMP280;9930;49.240;8.548;2022-08-25T04:54:18;100503.91;;;25.37
19568;BMP280;9930;49.240;8.548;2022-08-25T04:56:51;100492.75;;;25.29
19568;BMP280;9930;49.240;8.548;2022-08-25T04:59:18;100500.47;;;25.35
19568;BMP280;9930;49.240;8.548;2022-08-25T05:01:48;100502.22;;;25.34
19568;BMP280;9930;49.240;8.548;2022-08-25T05:04:19;100495.31;;;25.32
19568;BMP280;9930;49.240;8.548;2022-08-25T05:06:48;100493.69;;;25.26
19568;BMP280;9930;49.240;8.548;2022-08-25T05:09:17;100498.81;;;25.31
19568;BMP280;9930;49.240;8.548;2022-08-25T05:11:48;100497.97;;;25.29
19568;BMP280;9930;49.240;8.548;2022-08-25T05:14:21;100504.84;;;25.33
19568;BMP280;9930;49.240;8.548;2022-08-25T05:16:48;100498.88;;;25.28
19568;BMP280;9930;49.240;8.548;2022-08-25T05:19:18;100503.19;;;25.29
19568;BMP280;9930;49.240;8.548;2022-08-25T05:21:50;100501.41;;;25.31
19568;BMP280;9930;49.240;8.548;2022-08-25T05:24:18;100494.47;;;25.30
19568;BMP280;9930;49.240;8.548;2022-08-25T05:26:50;100486.69;;;25.28
19568;BMP280;9930;49.240;8.548;2022-08-25T05:29:18;100490.03;;;25.33
19568;BMP280;9930;49.240;8.548;2022-08-25T05:31:48;100480.53;;;25.31
19568;BMP280;9930;49.240;8.548;2022-08-25T05:34:19;100495.16;;;25.38
19568;BMP280;9930;49.240;8.548;2022-08-25T05:36:50;100492.56;;;25.38
19568;BMP280;9930;49.240;8.548;2022-08-25T05:39:21;100501.97;;;25.45
19568;BMP280;9930;49.240;8.548;2022-08-25T05:41:48;100490.75;;;25.41
19568;BMP280;9930;49.240;8.548;2022-08-25T05:44:18;100497.47;;;25.52
19568;BMP280;9930;49.240;8.548;2022-08-25T05:46:48;100492.25;;;25.52
19568;BMP280;9930;49.240;8.548;2022-08-25T05:49:18;100483.59;;;25.49
19568;BMP280;9930;49.240;8.548;2022-08-25T05:51:48;100505.03;;;25.64
19568;BMP280;9930;49.240;8.548;2022-08-25T05:54:20;100505.91;;;25.66
19568;BMP280;9930;49.240;8.548;2022-08-25T05:56:48;100503.22;;;25.69
19568;BMP280;9930;49.240;8.548;2022-08-25T05:59:19;100502.28;;;25.71
19568;BMP280;9930;49.240;8.548;2022-08-25T06:01:47;100492.75;;;25.69
19568;BMP280;9930;49.240;8.548;2022-08-25T06:04:34;100504.75;;;25.77
19568;BMP280;9930;49.240;8.548;2022-08-25T06:07:00;100491.72;;;25.76
19568;BMP280;9930;49.240;8.548;2022-08-25T06:09:26;100496.66;;;25.88
19568;BMP280;9930;49.240;8.548;2022-08-25T06:11:52;100484.09;;;26.02
19568;BMP280;9930;49.240;8.548;2022-08-25T06:14:21;100497.22;;;26.35
19568;BMP280;9930;49.240;8.548;2022-08-25T06:16:50;100486.06;;;26.61
19568;BMP280;9930;49.240;8.548;2022-08-25T06:19:18;100498.13;;;26.99
19568;BMP280;9930;49.240;8.548;2022-08-25T06:21:48;100500.66;;;27.31
19568;BMP280;9930;49.240;8.548;2022-08-25T06:24:19;100495.28;;;27.65
19568;BMP280;9930;49.240;8.548;2022-08-25T06:26:47;100489.00;;;27.97
19568;BMP280;9930;49.240;8.548;2022-08-25T06:29:13;100487.31;;;28.23
19568;BMP280;9930;49.240;8.548;2022-08-25T06:31:40;100475.91;;;28.49
19568;BMP280;9930;49.240;8.548;2022-08-25T06:34:10;100486.09;;;28.81
19568;BMP280;9930;49.240;8.548;2022-08-25T06:36:39;100482.88;;;28.98
19568;BMP280;9930;49.240;8.548;2022-08-25T06:39:05;100482.66;;;29.04
19568;BMP280;9930;49.240;8.548;2022-08-25T06:41:33;100478.22;;;29.06
19568;BMP280;9930;49.240;8.548;2022-08-25T06:43:58;100484.38;;;29.05
19568;BMP280;9930;49.240;8.548;2022-08-25T06:46:29;100468.09;;;28.95
19568;BMP280;9930;49.240;8.548;2022-08-25T06:48:57;100488.03;;;29.01
19568;BMP280;9930;49.240;8.548;2022-08-25T06:51:25;100484.44;;;29.04
19568;BMP280;9930;49.240;8.548;2022-08-25T06:53:53;100482.50;;;29.09
19568;BMP280;9930;49.240;8.548;2022-08-25T06:56:21;100477.97;;;29.12
19568;BMP280;9930;49.240;8.548;2022-08-25T06:58:51;100474.38;;;29.15
19568;BMP280;9930;49.240;8.548;2022-08-25T07:01:22;100471.75;;;29.15
19568;BMP280;9930;49.240;8.548;2022-08-25T07:03:53;100468.16;;;29.17
19568;BMP280;9930;49.240;8.548;2022-08-25T07:06:22;100468.94;;;29.19
19568;BMP280;9930;49.240;8.548;2022-08-25T07:08:57;100457.66;;;29.17
19568;BMP280;9930;49.240;8.548;2022-08-25T07:11:23;100466.81;;;29.29
19568;BMP280;9930;49.240;8.548;2022-08-25T07:13:52;100462.25;;;29.34
19568;BMP280;9930;49.240;8.548;2022-08-25T07:16:21;100460.34;;;29.38
19568;BMP280;9930;49.240;8.548;2022-08-25T07:18:48;100461.09;;;29.41
19568;BMP280;9930;49.240;8.548;2022-08-25T07:21:15;100459.09;;;29.48
19568;BMP280;9930;49.240;8.548;2022-08-25T07:23:41;100457.22;;;29.51
19568;BMP280;9930;49.240;8.548;2022-08-25T07:26:19;100457.88;;;29.56
19568;BMP280;9930;49.240;8.548;2022-08-25T07:28:49;100450.78;;;29.58
19568;BMP280;9930;49.240;8.548;2022-08-25T07:31:18;100443.50;;;29.65
19568;BMP280;9930;49.240;8.548;2022-08-25T07:33:48;100456.81;;;29.82
19568;BMP280;9930;49.240;8.548;2022-08-25T07:36:33;100457.09;;;29.96
19568;BMP280;9930;49.240;8.548;2022-08-25T07:39:03;100452.28;;;30.08
19568;BMP280;9930;49.240;8.548;2022-08-25T07:41:36;100454.25;;;30.23
19568;BMP280;9930;49.240;8.548;2022-08-25T07:44:05;100453.13;;;30.28
19568;BMP280;9930;49.240;8.548;2022-08-25T07:46:33;100450.25;;;30.35
19568;BMP280;9930;49.240;8.548;2022-08-25T07:48:59;100444.84;;;30.38
19568;BMP280;9930;49.240;8.548;2022-08-25T07:51:25;100454.13;;;30.46
19568;BMP280;9930;49.240;8.548;2022-08-25T07:53:51;100461.81;;;30.51
19568;BMP280;9930;49.240;8.548;2022-08-25T07:56:18;100458.31;;;30.50
19568;BMP280;9930;49.240;8.548;2022-08-25T07:58:50;100457.31;;;30.53
19568;BMP280;9930;49.240;8.548;2022-08-25T08:01:23;100452.75;;;30.58
19568;BMP280;9930;49.240;8.548;2022-08-25T08:03:51;100453.41;;;30.63
19568;BMP280;9930;49.240;8.548;2022-08-25T08:06:22;100442.25;;;30.56
19568;BMP280;9930;49.240;8.548;2022-08-25T08:08:51;100462.53;;;30.54
19568;BMP280;9930;49.240;8.548;2022-08-25T08:11:26;100444.44;;;30.47
19568;BMP280;9930;49.240;8.548;2022-08-25T08:13:56;100452.19;;;30.50
19568;BMP280;9930;49.240;8.548;2022-08-25T08:16:25;100461.44;;;30.60
19568;BMP280;9930;49.240;8.548;2022-08-25T08:18:54;100464.84;;;30.62
19568;BMP280;9930;49.240;8.548;2022-08-25T08:21:24;100450.03;;;30.59
19568;BMP280;9930;49.240;8.548;2022-08-25T08:23:51;100444.63;;;30.63
19568;BMP280;9930;49.240;8.548;2022-08-25T08:26:25;100449.78;;;30.66
19568;BMP280;9930;49.240;8.548;2022-08-25T08:28:51;100457.41;;;30.72
19568;BMP280;9930;49.240;8.548;2022-08-25T08:31:22;100451.13;;;30.74
19568;BMP280;9930;49.240;8.548;2022-08-25T08:33:56;100452.63;;;30.80
19568;BMP280;9930;49.240;8.548;2022-08-25T08:36:24;100447.88;;;30.88
19568;BMP280;9930;49.240;8.548;2022-08-25T08:38:53;100457.19;;;30.95
19568;BMP280;9930;49.240;8.548;2022-08-25T08:50:58;100448.50;;;31.12
19568;BMP280;9930;49.240;8.548;2022-08-25T08:56:29;100430.50;;;31.21
19568;BMP280;9930;49.240;8.548;2022-08-25T08:59:08;100435.88;;;31.37
19568;BMP280;9930;49.240;8.548;2022-08-25T09:01:46;100423.34;;;31.42
19568;BMP280;9930;49.240;8.548;2022-08-25T09:04:32;100414.03;;;31.52
19568;BMP280;9930;49.240;8.548;2022-08-25T09:07:09;100427.63;;;31.62
19568;BMP280;9930;49.240;8.548;2022-08-25T09:09:40;100423.91;;;31.66
19568;BMP280;9930;49.240;8.548;2022-08-25T09:15:27;100426.19;;;31.74
19568;BMP280;9930;49.240;8.548;2022-08-25T09:18:53;100421.63;;;31.77
19568;BMP280;9930;49.240;8.548;2022-08-25T09:21:53;100417.22;;;31.78
19568;BMP280;9930;49.240;8.548;2022-08-25T09:30:23;100411.16;;;31.93
19568;BMP280;9930;49.240;8.548;2022-08-25T09:32:54;100404.88;;;31.96
19568;BMP280;9930;49.240;8.548;2022-08-25T09:35:30;100408.13;;;32.01
19568;BMP280;9930;49.240;8.548;2022-08-25T09:38:19;100409.53;;;32.08
19568;BMP280;9930;49.240;8.548;2022-08-25T09:40:53;100402.91;;;32.16
19568;BMP280;9930;49.240;8.548;2022-08-25T09:46:13;100397.03;;;32.29
19568;BMP280;9930;49.240;8.548;2022-08-25T09:49:09;100387.94;;;32.34
19568;BMP280;9930;49.240;8.548;2022-08-25T09:51:37;100382.16;;;32.43
19568;BMP280;9930;49.240;8.548;2022-08-25T09:56:58;100383.22;;;32.72
19568;BMP280;9930;49.240;8.548;2022-08-25T09:59:35;100367.66;;;32.83
19568;BMP280;9930;49.240;8.548;2022-08-25T10:02:27;100363.75;;;32.91
19568;BMP280;9930;49.240;8.548;2022-08-25T10:04:55;100358.97;;;32.97
19568;BMP280;9930;49.240;8.548;2022-08-25T10:07:36;100362.53;;;33.12
19568;BMP280;9930;49.240;8.548;2022-08-25T10:12:52;100346.91;;;33.23
19568;BMP280;9930;49.240;8.548;2022-08-25T10:15:25;100358.53;;;33.36
19568;BMP280;9930;49.240;8.548;2022-08-25T10:17:54;100352.97;;;33.41
19568;BMP280;9930;49.240;8.548;2022-08-25T10:20:27;100353.63;;;33.44
19568;BMP280;9930;49.240;8.548;2022-08-25T10:23:15;100352.59;;;33.47
19568;BMP280;9930;49.240;8.548;2022-08-25T10:25:48;100342.31;;;33.42
19568;BMP280;9930;49.240;8.548;2022-08-25T10:28:33;100331.59;;;33.30
19568;BMP280;9930;49.240;8.548;2022-08-25T10:31:32;100330.72;;;33.29
19568;BMP280;9930;49.240;8.548;2022-08-25T10:40:20;100332.22;;;33.49
19568;BMP280;9930;49.240;8.548;2022-08-25T10:43:06;100329.22;;;33.55
19568;BMP280;9930;49.240;8.548;2022-08-25T10:45:56;100321.84;;;33.60
19568;BMP280;9930;49.240;8.548;2022-08-25T10:48:46;100312.97;;;33.61
19568;BMP280;9930;49.240;8.548;2022-08-25T10:52:00;100320.44;;;33.69
19568;BMP280;9930;49.240;8.548;2022-08-25T11:01:04;100311.44;;;33.87
19568;BMP280;9930;49.240;8.548;2022-08-25T11:03:56;100311.34;;;33.89
19568;BMP280;9930;49.240;8.548;2022-08-25T11:06:54;100305.00;;;33.91
19568;BMP280;9930;49.240;8.548;2022-08-25T11:09:37;100301.31;;;33.94
19568;BMP280;9930;49.240;8.548;2022-08-25T11:12:33;100290.56;;;33.97
19568;BMP280;9930;49.240;8.548;2022-08-25T11:15:10;100285.91;;;34.00
19568;BMP280;9930;49.240;8.548;2022-08-25T11:23:56;100276.00;;;34.32
19568;BMP280;9930;49.240;8.548;2022-08-25T11:26:33;100270.56;;;34.48
19568;BMP280;9930;49.240;8.548;2022-08-25T11:29:13;100264.50;;;34.60
19568;BMP280;9930;49.240;8.548;2022-08-25T11:31:52;100277.03;;;34.71
19568;BMP280;9930;49.240;8.548;2022-08-25T11:34:21;100261.78;;;34.74
19568;BMP280;9930;49.240;8.548;2022-08-25T11:37:24;100259.16;;;34.74
19568;BMP280;9930;49.240;8.548;2022-08-25T11:40:07;100274.78;;;34.65
19568;BMP280;9930;49.240;8.548;2022-08-25T11:48:53;100261.38;;;34.54
19568;BMP280;9930;49.240;8.548;2022-08-25T11:51:52;100259.22;;;34.46
19568;BMP280;9930;49.240;8.548;2022-08-25T11:57:20;100251.69;;;34.26
19568;BMP280;9930;49.240;8.548;2022-08-25T12:02:49;100243.56;;;34.15
19568;BMP280;9930;49.240;8.548;2022-08-25T12:11:04;100225.75;;;34.31
19568;BMP280;9930;49.240;8.548;2022-08-25T12:13:49;100244.38;;;34.43
19568;BMP280;9930;49.240;8.548;2022-08-25T12:24:54;100235.00;;;34.52
19568;BMP280;9930;49.240;8.548;2022-08-25T12:27:54;100223.06;;;34.59
19568;BMP280;9930;49.240;8.548;2022-08-25T12:30:49;100215.75;;;34.63
19568;BMP280;9930;49.240;8.548;2022-08-25T12:33:34;100216.84;;;34.73
19568;BMP280;9930;49.240;8.548;2022-08-25T12:36:10;100212.41;;;34.73
19568;BMP280;9930;49.240;8.548;2022-08-25T12:38:51;100208.69;;;34.76
19568;BMP280;9930;49.240;8.548;2022-08-25T12:41:23;100211.63;;;34.86
19568;BMP280;9930;49.240;8.548;2022-08-25T12:44:00;100207.63;;;34.93
19568;BMP280;9930;49.240;8.548;2022-08-25T12:46:38;100208.03;;;34.99
19568;BMP280;9930;49.240;8.548;2022-08-25T12:49:29;100212.63;;;35.10
19568;BMP280;9930;49.240;8.548;2022-08-25T12:52:13;100205.31;;;35.14
19568;BMP280;9930;49.240;8.548;2022-08-25T12:54:54;100217.31;;;35.19
19568;BMP280;9930;49.240;8.548;2022-08-25T13:04:10;100207.44;;;35.09
19568;BMP280;9930;49.240;8.548;2022-08-25T13:16:21;100181.03;;;35.20
19568;BMP280;9930;49.240;8.548;2022-08-25T13:18:47;100179.66;;;35.27
19568;BMP280;9930;49.240;8.548;2022-08-25T13:21:23;100188.56;;;35.26
19568;BMP280;9930;49.240;8.548;2022-08-25T13:23:58;100182.53;;;35.24
19568;BMP280;9930;49.240;8.548;2022-08-25T13:26:32;100174.47;;;35.25
19568;BMP280;9930;49.240;8.548;2022-08-25T13:31:38;100172.97;;;35.21
19568;BMP280;9930;49.240;8.548;2022-08-25T13:34:21;100173.72;;;35.23
19568;BMP280;9930;49.240;8.548;2022-08-25T13:36:50;100179.56;;;35.28
19568;BMP280;9930;49.240;8.548;2022-08-25T13:39:38;100163.75;;;35.27
19568;BMP280;9930;49.240;8.548;2022-08-25T13:42:13;100162.78;;;35.28
19568;BMP280;9930;49.240;8.548;2022-08-25T13:44:43;100173.41;;;35.28
19568;BMP280;9930;49.240;8.548;2022-08-25T13:47:32;100155.25;;;35.22
19568;BMP280;9930;49.240;8.548;2022-08-25T13:52:40;100144.03;;;35.18
19568;BMP280;9930;49.240;8.548;2022-08-25T13:55:06;100151.75;;;35.21
19568;BMP280;9930;49.240;8.548;2022-08-25T13:57:40;100141.25;;;35.20
19568;BMP280;9930;49.240;8.548;2022-08-25T14:00:11;100151.66;;;35.23
19568;BMP280;9930;49.240;8.548;2022-08-25T14:05:06;100132.25;;;35.22
19568;BMP280;9930;49.240;8.548;2022-08-25T14:07:35;100129.50;;;35.24
19568;BMP280;9930;49.240;8.548;2022-08-25T14:10:32;100130.00;;;35.29
19568;BMP280;9930;49.240;8.548;2022-08-25T14:15:46;100128.75;;;35.47
19568;BMP280;9930;49.240;8.548;2022-08-25T14:18:19;100130.25;;;35.51
19568;BMP280;9930;49.240;8.548;2022-08-25T14:20:51;100128.22;;;35.55
19568;BMP280;9930;49.240;8.548;2022-08-25T14:23:25;100120.88;;;35.58
19568;BMP280;9930;49.240;8.548;2022-08-25T14:25:54;100125.03;;;35.62
19568;BMP280;9930;49.240;8.548;2022-08-25T14:28:25;100120.25;;;35.67
19568;BMP280;9930;49.240;8.548;2022-08-25T14:31:01;100127.75;;;35.74
19568;BMP280;9930;49.240;8.548;2022-08-25T14:33:34;100110.13;;;35.73
19568;BMP280;9930;49.240;8.548;2022-08-25T14:36:04;100119.28;;;35.81
19568;BMP280;9930;49.240;8.548;2022-08-25T14:38:33;100122.44;;;35.86
19568;BMP280;9930;49.240;8.548;2022-08-25T14:41:02;100112.69;;;35.87
19568;BMP280;9930;49.240;8.548;2022-08-25T14:43:30;100093.75;;;35.91
19568;BMP280;9930;49.240;8.548;2022-08-25T14:45:56;100103.72;;;36.00
19568;BMP280;9930;49.240;8.548;2022-08-25T14:48:35;100097.09;;;36.06
19568;BMP280;9930;49.240;8.548;2022-08-25T14:51:06;100091.56;;;36.09
19568;BMP280;9930;49.240;8.548;2022-08-25T14:53:34;100087.72;;;36.13
19568;BMP280;9930;49.240;8.548;2022-08-25T14:56:00;100091.00;;;36.17
19568;BMP280;9930;49.240;8.548;2022-08-25T14:58:28;100093.66;;;36.17
19568;BMP280;9930;49.240;8.548;2022-08-25T15:00:54;100084.34;;;36.11
19568;BMP280;9930;49.240;8.548;2022-08-25T15:03:38;100088.69;;;36.12
19568;BMP280;9930;49.240;8.548;2022-08-25T15:06:06;100084.78;;;36.05
19568;BMP280;9930;49.240;8.548;2022-08-25T15:08:34;100078.84;;;36.01
19568;BMP280;9930;49.240;8.548;2022-08-25T15:11:18;100086.31;;;35.96
19568;BMP280;9930;49.240;8.548;2022-08-25T15:13:48;100075.91;;;35.93
19568;BMP280;9930;49.240;8.548;2022-08-25T15:16:28;100078.06;;;35.88
19568;BMP280;9930;49.240;8.548;2022-08-25T15:18:57;100072.34;;;35.82
19568;BMP280;9930;49.240;8.548;2022-08-25T15:21:22;100060.34;;;35.76
19568;BMP280;9930;49.240;8.548;2022-08-25T15:23:49;100077.13;;;35.77
19568;BMP280;9930;49.240;8.548;2022-08-25T15:26:19;100083.59;;;35.73
19568;BMP280;9930;49.240;8.548;2022-08-25T15:28:49;100062.94;;;35.65
19568;BMP280;9930;49.240;8.548;2022-08-25T15:31:22;100063.38;;;35.59
19568;BMP280;9930;49.240;8.548;2022-08-25T15:33:48;100066.25;;;35.56
19568;BMP280;9930;49.240;8.548;2022-08-25T15:36:18;100073.47;;;35.54
19568;BMP280;9930;49.240;8.548;2022-08-25T15:38:48;100053.41;;;35.50
19568;BMP280;9930;49.240;8.548;2022-08-25T15:41:20;100064.25;;;35.47
19568;BMP280;9930;49.240;8.548;2022-08-25T15:43:47;100052.06;;;35.44
19568;BMP280;9930;49.240;8.548;2022-08-25T15:46:18;100054.06;;;35.41
19568;BMP280;9930;49.240;8.548;2022-08-25T15:48:48;100049.84;;;35.38
19568;BMP280;9930;49.240;8.548;2022-08-25T15:51:19;100063.22;;;35.36
19568;BMP280;9930;49.240;8.548;2022-08-25T15:53:48;100048.59;;;35.31
19568;BMP280;9930;49.240;8.548;2022-08-25T15:56:19;100049.72;;;35.27
19568;BMP280;9930;49.240;8.548;2022-08-25T15:58:50;100050.16;;;35.33
19568;BMP280;9930;49.240;8.548;2022-08-25T16:01:22;100042.63;;;35.27
19568;BMP280;9930;49.240;8.548;2022-08-25T16:03:52;100045.28;;;35.27
19568;BMP280;9930;49.240;8.548;2022-08-25T16:06:19;100043.34;;;35.29
19568;BMP280;9930;49.240;8.548;2022-08-25T16:08:49;100042.41;;;35.30
19568;BMP280;9930;49.240;8.548;2022-08-25T16:11:25;100050.56;;;35.27
19568;BMP280;9930;49.240;8.548;2022-08-25T16:13:55;100042.72;;;35.26
19568;BMP280;9930;49.240;8.548;2022-08-25T16:16:24;100040.28;;;35.23
19568;BMP280;9930;49.240;8.548;2022-08-25T16:18:53;100036.50;;;35.14
19568;BMP280;9930;49.240;8.548;2022-08-25T16:21:24;100039.97;;;35.15
19568;BMP280;9930;49.240;8.548;2022-08-25T16:23:54;100049.13;;;35.11
19568;BMP280;9930;49.240;8.548;2022-08-25T16:26:21;100043.06;;;35.09